Time;durP1;ratioP1;P1;durP2;ratioP2;P2;SDS_P1;SDS_P2;PMS_P1;PMS_P2;Temp;Humidity;BMP_temperature;BMP_pressure;BME280_temperature;BME280_humidity;BME280_pressure;Samples;Min_cycle;Max_cycle;Signal;HPM_P1;HPM_P2
2023/09/04 00:01:09;;;;;;;6.05;3.78;;;12.80;99.90;;;;;;4899251;29;20056;-83
2023/09/04 00:03:35;;;;;;;5.75;4.00;;;12.70;99.90;;;;;;4903430;29;20043;-81
2023/09/04 00:06:01;;;;;;;6.30;3.72;;;12.70;99.90;;;;;;4900597;29;20064;-83
2023/09/04 00:08:27;;;;;;;4.75;4.20;;;12.70;99.90;;;;;;4903061;29;20055;-80
2023/09/04 00:10:52;;;;;;;4.05;3.65;;;12.70;99.90;;;;;;4888021;29;20501;-80
2023/09/04 00:13:18;;;;;;;3.67;3.38;;;12.70;99.90;;;;;;4887404;29;20029;-81
2023/09/04 00:15:45;;;;;;;7.05;3.78;;;12.70;99.90;;;;;;4894732;29;20047;-81
2023/09/04 00:18:11;;;;;;;6.28;3.88;;;12.70;99.90;;;;;;4897510;29;20033;-82
2023/09/04 00:20:37;;;;;;;5.55;3.45;;;12.70;99.90;;;;;;4890582;29;20045;-80
2023/09/04 00:23:03;;;;;;;7.35;4.03;;;12.60;99.90;;;;;;4895592;29;20043;-82
2023/09/04 00:25:28;;;;;;;5.65;3.97;;;12.60;99.90;;;;;;4895423;29;20390;-81
2023/09/04 00:27:55;;;;;;;3.90;3.58;;;12.60;99.90;;;;;;4894712;29;20029;-78
2023/09/04 00:30:22;;;;;;;3.60;3.30;;;12.60;99.90;;;;;;4888084;29;20520;-78
2023/09/04 00:32:48;;;;;;;6.97;4.22;;;12.50;99.90;;;;;;4890986;29;20646;-81
2023/09/04 00:35:14;;;;;;;4.40;4.00;;;12.50;99.90;;;;;;4898807;29;20107;-81
2023/09/04 00:37:41;;;;;;;3.97;3.58;;;12.50;99.90;;;;;;4895282;29;20036;-81
2023/09/04 00:40:08;;;;;;;3.80;3.50;;;12.50;99.90;;;;;;4893191;29;20028;-80
2023/09/04 00:42:34;;;;;;;4.43;4.03;;;12.50;99.90;;;;;;4894940;29;20496;-79
2023/09/04 00:45:00;;;;;;;4.40;4.00;;;12.50;99.90;;;;;;4903808;29;20048;-81
2023/09/04 00:47:29;;;;;;;3.92;3.60;;;12.50;99.90;;;;;;4886581;29;20048;-81
2023/09/04 00:49:55;;;;;;;10.27;3.95;;;12.50;99.90;;;;;;4888906;29;20116;-82
2023/09/04 00:52:25;;;;;;;4.32;3.40;;;12.40;99.90;;;;;;4904260;29;20048;-83
2023/09/04 00:54:51;;;;;;;4.18;3.80;;;12.40;99.90;;;;;;4904210;29;20465;-82
2023/09/04 00:57:18;;;;;;;6.22;4.38;;;12.40;99.90;;;;;;4905886;29;20024;-80
2023/09/04 00:59:45;;;;;;;4.32;3.85;;;12.40;99.90;;;;;;4898539;29;20029;-81
2023/09/04 01:02:14;;;;;;;3.95;3.58;;;12.30;99.90;;;;;;4886422;29;20037;-80
2023/09/04 01:04:40;;;;;;;5.35;3.70;;;12.30;99.90;;;;;;4891974;29;20474;-81
2023/09/04 01:07:06;;;;;;;4.28;3.47;;;12.20;99.90;;;;;;4901103;29;20278;-83
2023/09/04 01:09:32;;;;;;;6.28;3.80;;;12.20;99.90;;;;;;4897633;29;20052;-81
2023/09/04 01:12:25;;;;;;;6.45;3.70;;;12.20;99.90;;;;;;4892483;29;20043;-79
2023/09/04 01:14:55;;;;;;;5.78;3.95;;;12.20;99.90;;;;;;4893935;29;20040;-80
2023/09/04 01:17:22;;;;;;;5.00;4.28;;;12.10;99.90;;;;;;4895019;29;20032;-80
2023/09/04 01:19:49;;;;;;;4.88;4.43;;;12.10;99.90;;;;;;4894576;29;20040;-79
2023/09/04 01:22:15;;;;;;;6.78;3.90;;;12.10;99.90;;;;;;4893080;29;20029;-82
2023/09/04 01:24:42;;;;;;;4.65;3.92;;;12.10;99.90;;;;;;4897043;29;20032;-80
2023/09/04 01:27:27;;;;;;;4.45;4.05;;;12.10;99.90;;;;;;4900292;29;20040;-81
2023/09/04 01:30:05;;;;;;;4.50;4.10;;;12.00;99.90;;;;;;4901864;29;20032;-82
2023/09/04 01:32:47;;;;;;;6.20;3.50;;;12.00;99.90;;;;;;4892005;29;20029;-82
2023/09/04 01:35:14;;;;;;;5.43;4.40;;;12.00;99.90;;;;;;4895280;29;20033;-81
2023/09/04 01:37:41;;;;;;;4.88;4.00;;;12.00;99.90;;;;;;4895639;29;20033;-80
2023/09/04 01:40:07;;;;;;;3.95;3.58;;;12.00;99.90;;;;;;4893803;29;20071;-82
2023/09/04 01:42:36;;;;;;;6.10;4.00;;;11.90;99.90;;;;;;4893260;29;20035;-80
2023/09/04 01:45:02;;;;;;;4.47;4.07;;;11.90;99.90;;;;;;4888302;29;20039;-82
2023/09/04 01:47:39;;;;;;;4.57;4.15;;;11.90;99.90;;;;;;4896162;29;20040;-81
2023/09/04 01:50:06;;;;;;;5.50;4.30;;;11.90;99.90;;;;;;4880904;29;20506;-80
2023/09/04 01:52:32;;;;;;;5.00;4.00;;;11.90;99.90;;;;;;4893029;29;20028;-83
2023/09/04 01:54:58;;;;;;;6.07;4.72;;;11.80;99.90;;;;;;4910642;29;20124;-81
2023/09/04 01:57:25;;;;;;;5.13;4.13;;;11.80;99.90;;;;;;4897940;29;20035;-79
2023/09/04 01:59:51;;;;;;;5.28;4.78;;;11.80;99.90;;;;;;4879367;29;20029;-79
2023/09/04 02:02:17;;;;;;;4.60;4.20;;;11.70;99.90;;;;;;4887271;29;20060;-81
2023/09/04 02:04:43;;;;;;;5.20;4.70;;;11.70;99.90;;;;;;4897180;29;20525;-82
2023/09/04 02:07:08;;;;;;;5.15;3.90;;;11.70;99.90;;;;;;4893012;29;20028;-81
2023/09/04 02:09:34;;;;;;;4.72;4.28;;;11.70;99.90;;;;;;4899903;29;20040;-83
2023/09/04 02:12:00;;;;;;;5.28;4.43;;;11.70;99.90;;;;;;4896257;29;20041;-83
2023/09/04 02:14:44;;;;;;;4.93;4.53;;;11.70;99.90;;;;;;4896600;29;20116;-80
2023/09/04 02:17:12;;;;;;;5.65;4.68;;;11.70;99.90;;;;;;4889193;29;20044;-81
2023/09/04 02:19:38;;;;;;;5.13;4.40;;;11.70;99.90;;;;;;4903200;29;20037;-83
2023/09/04 02:22:03;;;;;;;4.75;4.28;;;11.70;99.90;;;;;;4888454;29;20531;-82
2023/09/04 02:24:32;;;;;;;7.43;5.25;;;11.60;99.90;;;;;;4898405;29;20363;-80
2023/09/04 02:26:57;;;;;;;4.93;4.30;;;11.70;99.90;;;;;;4895215;29;20051;-81
2023/09/04 02:29:23;;;;;;;5.63;4.32;;;11.60;99.90;;;;;;4897819;29;20474;-81
2023/09/04 02:31:49;;;;;;;5.25;4.50;;;11.60;99.90;;;;;;4889905;29;20041;-82
2023/09/04 02:34:15;;;;;;;5.32;4.75;;;11.60;99.90;;;;;;4895694;29;20036;-82
2023/09/04 02:36:41;;;;;;;5.15;4.65;;;11.60;99.90;;;;;;4892307;29;20048;-82
2023/09/04 02:39:07;;;;;;;6.57;4.90;;;11.60;99.90;;;;;;4890722;29;20029;-82
2023/09/04 02:41:33;;;;;;;8.00;5.38;;;11.60;99.90;;;;;;4892000;29;20549;-82
2023/09/04 02:43:59;;;;;;;6.25;5.15;;;11.60;99.90;;;;;;4898433;29;20310;-81
2023/09/04 02:46:24;;;;;;;7.28;4.70;;;11.60;99.90;;;;;;4888858;29;20028;-83
2023/09/04 02:48:50;;;;;;;5.45;4.57;;;11.60;99.90;;;;;;4902424;29;20513;-82
2023/09/04 02:51:16;;;;;;;6.60;4.57;;;11.60;99.90;;;;;;4892688;29;20518;-81
2023/09/04 02:53:42;;;;;;;4.78;4.20;;;11.60;99.90;;;;;;4879733;29;20430;-81
2023/09/04 02:56:08;;;;;;;5.18;4.68;;;11.60;99.90;;;;;;4882628;29;20041;-79
2023/09/04 02:58:33;;;;;;;5.43;4.93;;;11.60;99.90;;;;;;4892255;29;20064;-81
2023/09/04 03:00:59;;;;;;;6.97;4.70;;;11.50;99.90;;;;;;4908862;29;20037;-82
2023/09/04 03:03:25;;;;;;;5.47;4.63;;;11.40;99.90;;;;;;4890353;29;20490;-82
2023/09/04 03:05:51;;;;;;;4.70;4.30;;;11.40;99.90;;;;;;4887749;29;20100;-81
2023/09/04 03:08:17;;;;;;;6.82;5.18;;;11.30;99.90;;;;;;4888685;29;20519;-80
2023/09/04 03:10:43;;;;;;;8.88;5.00;;;11.30;99.90;;;;;;4894998;29;20041;-81
2023/09/04 03:13:09;;;;;;;4.60;4.20;;;11.30;99.90;;;;;;4898810;29;20052;-81
2023/09/04 03:15:55;;;;;;;5.07;4.57;;;11.20;99.90;;;;;;4894453;29;20138;-81
2023/09/04 03:18:21;;;;;;;5.00;4.47;;;11.20;99.90;;;;;;4897114;29;20523;-82
2023/09/04 03:20:48;;;;;;;5.30;4.80;;;11.20;99.90;;;;;;4887108;29;20363;-80
2023/09/04 03:23:14;;;;;;;4.95;4.45;;;11.20;99.90;;;;;;4888140;29;20036;-81
2023/09/04 03:25:41;;;;;;;7.63;4.38;;;11.20;99.90;;;;;;4909248;29;20039;-79
2023/09/04 03:28:07;;;;;;;6.15;4.65;;;11.10;99.90;;;;;;4904516;29;20037;-82
2023/09/04 03:30:34;;;;;;;5.35;4.80;;;11.10;99.90;;;;;;4892668;29;20035;-81
2023/09/04 03:33:00;;;;;;;6.85;4.80;;;11.10;99.90;;;;;;4892101;29;20045;-81
2023/09/04 03:35:26;;;;;;;5.45;4.95;;;11.10;99.90;;;;;;4885243;29;20072;-81
2023/09/04 03:37:52;;;;;;;5.80;4.38;;;11.00;99.90;;;;;;4904172;29;20044;-80
2023/09/04 03:40:23;;;;;;;4.97;4.40;;;11.00;99.90;;;;;;4898645;29;20025;-81
2023/09/04 03:42:50;;;;;;;6.10;4.70;;;11.00;99.90;;;;;;4904947;29;20068;-79
2023/09/04 03:45:17;;;;;;;5.00;4.50;;;11.00;99.90;;;;;;4907416;29;20041;-82
2023/09/04 03:47:44;;;;;;;5.90;5.30;;;11.00;99.90;;;;;;4888268;29;20033;-82
2023/09/04 03:50:11;;;;;;;8.30;4.95;;;11.00;99.90;;;;;;4888388;29;20057;-81
2023/09/04 03:52:38;;;;;;;5.85;4.60;;;10.90;99.90;;;;;;4892694;29;20521;-80
2023/09/04 03:55:11;;;;;;;4.93;4.43;;;10.90;99.90;;;;;;4889338;29;20401;-81
2023/09/04 03:57:41;;;;;;;5.70;4.32;;;10.90;99.90;;;;;;4904851;29;20561;-80
2023/09/04 04:00:25;;;;;;;5.15;4.07;;;11.00;99.90;;;;;;4896866;29;20057;-82
2023/09/04 04:02:51;;;;;;;5.72;4.88;;;11.00;99.90;;;;;;4900362;29;20029;-81
2023/09/04 04:05:19;;;;;;;5.45;4.95;;;10.90;99.90;;;;;;4899398;29;20366;-82
2023/09/04 04:07:45;;;;;;;7.60;5.72;;;10.90;99.90;;;;;;4902295;29;20033;-81
2023/09/04 04:10:11;;;;;;;5.75;4.70;;;10.90;99.90;;;;;;4895887;29;20426;-82
2023/09/04 04:12:37;;;;;;;6.03;4.82;;;10.90;99.90;;;;;;4899980;29;20064;-83
2023/09/04 04:15:07;;;;;;;5.40;4.90;;;10.90;99.90;;;;;;4891184;29;20496;-83
2023/09/04 04:17:34;;;;;;;7.30;4.85;;;10.90;99.90;;;;;;4893917;29;20115;-81
2023/09/04 04:20:00;;;;;;;4.45;4.05;;;10.90;99.90;;;;;;4902176;29;20461;-82
2023/09/04 04:22:26;;;;;;;5.65;5.15;;;10.90;99.90;;;;;;4896528;29;20100;-81
2023/09/04 04:24:52;;;;;;;12.68;5.45;;;10.90;99.90;;;;;;4901457;29;20044;-82
2023/09/04 04:27:18;;;;;;;4.63;4.22;;;10.80;99.90;;;;;;4900031;29;20048;-82
2023/09/04 04:29:45;;;;;;;6.80;4.63;;;10.80;99.90;;;;;;4888408;29;20041;-82
2023/09/04 04:32:13;;;;;;;4.72;4.10;;;10.80;99.90;;;;;;4914491;29;20720;-81
2023/09/04 04:34:41;;;;;;;5.18;4.25;;;10.70;99.90;;;;;;4894470;29;20055;-80
2023/09/04 04:37:09;;;;;;;7.30;5.10;;;10.70;99.90;;;;;;4897157;29;20033;-82
2023/09/04 04:39:36;;;;;;;7.55;5.22;;;10.70;99.90;;;;;;4892358;29;20033;-82
2023/09/04 04:42:02;;;;;;;8.00;5.53;;;10.60;99.90;;;;;;4892813;29;20046;-82
2023/09/04 04:44:30;;;;;;;15.05;5.88;;;10.60;99.90;;;;;;4904441;29;20037;-81
2023/09/04 04:46:56;;;;;;;7.93;5.43;;;10.60;99.90;;;;;;4903383;29;20115;-83
2023/09/04 04:49:23;;;;;;;5.85;5.10;;;10.60;99.90;;;;;;4902411;29;20041;-80
2023/09/04 04:51:50;;;;;;;6.45;5.30;;;10.60;99.90;;;;;;4895800;29;20318;-80
2023/09/04 04:54:16;;;;;;;6.38;5.15;;;10.60;99.90;;;;;;4909724;29;20073;-82
2023/09/04 04:56:42;;;;;;;6.05;4.78;;;10.60;99.90;;;;;;4901660;29;20716;-82
2023/09/04 04:59:08;;;;;;;5.15;4.28;;;10.70;99.90;;;;;;4892690;29;20040;-81
2023/09/04 05:01:34;;;;;;;5.88;4.38;;;10.70;99.90;;;;;;4901589;29;20088;-81
2023/09/04 05:04:01;;;;;;;4.55;4.10;;;10.70;99.90;;;;;;4898477;29;20021;-81
2023/09/04 05:06:27;;;;;;;5.80;4.65;;;10.70;99.90;;;;;;4910217;29;20029;-81
2023/09/04 05:08:53;;;;;;;4.80;4.30;;;10.80;99.90;;;;;;4881615;29;20104;-82
2023/09/04 05:11:19;;;;;;;5.45;4.28;;;10.80;99.90;;;;;;4889883;29;20068;-83
2023/09/04 05:13:46;;;;;;;5.32;4.82;;;10.80;99.90;;;;;;4913406;29;20096;-82
2023/09/04 05:16:12;;;;;;;5.10;4.60;;;10.80;99.90;;;;;;4905679;29;20048;-82
2023/09/04 05:18:39;;;;;;;6.32;5.03;;;10.80;99.90;;;;;;4885958;29;20411;-83
2023/09/04 05:21:07;;;;;;;7.10;5.30;;;10.90;99.90;;;;;;4892936;29;20032;-83
2023/09/04 05:23:36;;;;;;;7.43;4.97;;;10.90;99.90;;;;;;4895832;29;20036;-82
2023/09/04 05:26:02;;;;;;;6.47;5.65;;;11.00;99.90;;;;;;4906999;29;20118;-82
2023/09/04 05:28:29;;;;;;;5.82;5.28;;;11.00;99.90;;;;;;4895067;29;20037;-81
2023/09/04 05:31:02;;;;;;;6.55;5.25;;;11.00;99.90;;;;;;4900481;29;20088;-82
2023/09/04 05:33:28;;;;;;;6.38;4.88;;;11.10;99.90;;;;;;4895881;29;20039;-83
2023/09/04 05:35:56;;;;;;;5.85;5.07;;;11.10;99.90;;;;;;4886000;29;20025;-82
2023/09/04 05:38:22;;;;;;;6.80;5.57;;;11.20;99.90;;;;;;4896355;29;20085;-80
2023/09/04 05:41:00;;;;;;;7.72;5.53;;;11.20;99.90;;;;;;4893304;29;20029;-81
2023/09/04 05:43:26;;;;;;;6.03;5.40;;;11.30;99.90;;;;;;4892330;29;20100;-82
2023/09/04 05:45:52;;;;;;;5.45;4.95;;;11.40;99.90;;;;;;4903602;29;20037;-79
2023/09/04 05:48:18;;;;;;;5.53;5.03;;;11.50;99.90;;;;;;4890826;29;20481;-81
2023/09/04 05:50:43;;;;;;;6.68;5.57;;;11.60;99.90;;;;;;4890813;29;20052;-81
2023/09/04 05:53:09;;;;;;;6.75;6.10;;;11.70;99.90;;;;;;4890452;29;20068;-82
2023/09/04 05:55:36;;;;;;;6.20;5.60;;;11.90;99.90;;;;;;4888063;29;20039;-82
2023/09/04 05:58:02;;;;;;;7.97;5.43;;;12.10;99.90;;;;;;4893995;29;20116;-78
2023/09/04 06:00:28;;;;;;;7.30;5.68;;;12.30;99.90;;;;;;4890701;29;20037;-78
2023/09/04 06:02:56;;;;;;;7.57;6.43;;;12.60;99.90;;;;;;4890988;29;20036;-81
2023/09/04 06:05:24;;;;;;;8.43;5.93;;;12.90;99.90;;;;;;4892539;29;20052;-83
2023/09/04 06:07:49;;;;;;;6.13;5.53;;;13.20;99.90;;;;;;4903249;29;20058;-80
2023/09/04 06:10:15;;;;;;;6.35;5.68;;;13.50;99.90;;;;;;4891817;29;20037;-82
2023/09/04 06:12:41;;;;;;;4.43;3.88;;;13.80;99.90;;;;;;4892739;29;20044;-83
2023/09/04 06:15:07;;;;;;;4.88;4.47;;;14.10;99.90;;;;;;4901646;29;20564;-80
2023/09/04 06:17:33;;;;;;;5.15;3.78;;;14.40;99.90;;;;;;4900114;29;20067;-82
2023/09/04 06:19:59;;;;;;;6.68;3.97;;;14.60;99.90;;;;;;4889398;29;20261;-82
2023/09/04 06:22:24;;;;;;;8.20;3.63;;;14.80;99.90;;;;;;4896320;29;20032;-83
2023/09/04 06:24:50;;;;;;;3.75;3.38;;;15.10;99.90;;;;;;4897887;29;20035;-81
2023/09/04 06:27:16;;;;;;;5.40;3.70;;;15.40;99.90;;;;;;4902502;29;20069;-80
2023/09/04 06:29:41;;;;;;;3.25;3.00;;;15.70;99.90;;;;;;4896716;29;20107;-82
2023/09/04 06:32:07;;;;;;;3.65;3.35;;;15.80;99.90;;;;;;4892415;29;20021;-82
2023/09/04 06:34:33;;;;;;;5.20;4.70;;;16.00;99.90;;;;;;4901468;29;20071;-81
2023/09/04 06:36:59;;;;;;;3.70;3.40;;;16.20;99.90;;;;;;4888785;29;20078;-80
2023/09/04 06:39:24;;;;;;;6.10;3.95;;;16.40;99.90;;;;;;4890861;29;20036;-83
2023/09/04 06:41:50;;;;;;;4.18;3.50;;;16.60;99.90;;;;;;4893744;29;20032;-80
2023/09/04 06:44:18;;;;;;;3.90;3.40;;;16.80;99.90;;;;;;4889915;29;20125;-80
2023/09/04 06:46:44;;;;;;;5.85;3.60;;;16.90;99.90;;;;;;4886867;29;20096;-79
2023/09/04 06:49:09;;;;;;;3.45;3.15;;;17.10;99.90;;;;;;4889310;29;20071;-84
2023/09/04 06:51:35;;;;;;;3.10;2.90;;;17.20;99.90;;;;;;4891247;29;20063;-80
2023/09/04 06:54:03;;;;;;;2.83;2.63;;;17.20;99.90;;;;;;4887935;29;20036;-80
2023/09/04 06:56:29;;;;;;;5.63;3.88;;;17.30;99.90;;;;;;4889528;29;20890;-81
2023/09/04 06:58:55;;;;;;;3.65;3.15;;;17.40;99.90;;;;;;4883756;29;20037;-80
2023/09/04 07:01:21;;;;;;;4.18;3.78;;;17.60;99.90;;;;;;4887359;29;20390;-79
2023/09/04 07:03:47;;;;;;;4.40;3.85;;;17.70;99.90;;;;;;4892310;29;20406;-79
2023/09/04 07:06:13;;;;;;;3.20;2.90;;;17.70;99.90;;;;;;4888601;29;20040;-82
2023/09/04 07:08:39;;;;;;;3.33;3.03;;;17.80;99.90;;;;;;4892688;29;20393;-80
2023/09/04 07:11:05;;;;;;;3.33;2.88;;;18.00;99.90;;;;;;4899184;29;20041;-79
2023/09/04 07:13:30;;;;;;;3.88;2.95;;;18.20;99.90;;;;;;4890655;29;20704;-79
2023/09/04 07:15:56;;;;;;;2.50;2.30;;;18.30;99.90;;;;;;4910047;29;20188;-79
2023/09/04 07:18:22;;;;;;;7.57;3.10;;;18.30;99.90;;;;;;4895750;29;20680;-80
2023/09/04 07:20:48;;;;;;;3.88;3.47;;;18.30;99.90;;;;;;4896286;29;20137;-79
2023/09/04 07:23:14;;;;;;;3.25;3.00;;;18.20;99.90;;;;;;4888513;29;20041;-80
2023/09/04 07:25:39;;;;;;;2.90;2.70;;;18.30;99.90;;;;;;4891927;29;20112;-81
2023/09/04 07:28:05;;;;;;;5.10;2.60;;;18.40;99.90;;;;;;4892995;29;20119;-83
2023/09/04 07:30:31;;;;;;;3.88;2.88;;;18.40;99.90;;;;;;4887138;29;20044;-79
2023/09/04 07:32:56;;;;;;;4.32;2.88;;;18.40;99.90;;;;;;4887046;29;20089;-81
2023/09/04 07:35:22;;;;;;;3.67;2.83;;;18.40;99.90;;;;;;4901716;29;20738;-83
2023/09/04 07:37:48;;;;;;;2.72;2.42;;;18.30;99.90;;;;;;4901078;29;20074;-80
2023/09/04 07:40:14;;;;;;;3.95;2.42;;;18.30;99.90;;;;;;4905232;29;20040;-83
2023/09/04 07:42:42;;;;;;;3.17;2.50;;;18.40;99.90;;;;;;4900736;29;20045;-84
2023/09/04 07:45:08;;;;;;;3.33;2.10;;;18.40;99.90;;;;;;4905384;29;20100;-82
2023/09/04 07:47:34;;;;;;;2.95;2.45;;;18.40;99.90;;;;;;4898384;29;20209;-80
2023/09/04 07:49:59;;;;;;;2.40;2.20;;;18.40;99.90;;;;;;4900857;29;20025;-80
2023/09/04 07:52:25;;;;;;;4.40;2.60;;;18.40;99.90;;;;;;4901136;29;20036;-82
2023/09/04 07:54:51;;;;;;;4.55;2.45;;;18.30;99.90;;;;;;4901787;29;20052;-80
2023/09/04 07:57:17;;;;;;;4.97;2.25;;;18.30;99.90;;;;;;4915096;29;20037;-81
2023/09/04 07:59:43;;;;;;;2.75;2.55;;;18.10;99.90;;;;;;4903493;29;20052;-83
2023/09/04 08:02:09;;;;;;;2.75;2.20;;;18.20;99.90;;;;;;4901640;29;20025;-82
2023/09/04 08:04:35;;;;;;;2.95;2.38;;;18.20;99.90;;;;;;4901019;29;20033;-82
2023/09/04 08:07:00;;;;;;;3.72;2.38;;;18.30;99.90;;;;;;4892539;29;20032;-83
2023/09/04 08:09:26;;;;;;;3.20;2.20;;;18.40;99.90;;;;;;4874620;29;20036;-83
2023/09/04 08:11:52;;;;;;;2.67;2.42;;;18.50;99.90;;;;;;4893236;29;20459;-80
2023/09/04 08:14:20;;;;;;;3.58;2.67;;;18.70;99.90;;;;;;4892965;29;20037;-79
2023/09/04 08:16:46;;;;;;;3.72;2.10;;;18.80;99.90;;;;;;4888565;29;20028;-80
2023/09/04 08:19:12;;;;;;;3.08;2.53;;;18.90;99.90;;;;;;4897538;29;20108;-79
2023/09/04 08:21:37;;;;;;;2.72;2.47;;;18.80;99.90;;;;;;4891655;29;20037;-81
2023/09/04 08:24:03;;;;;;;3.92;2.25;;;18.80;99.90;;;;;;4898729;29;20043;-81
2023/09/04 08:26:29;;;;;;;6.18;2.70;;;18.90;99.90;;;;;;4903186;29;20041;-80
2023/09/04 08:28:55;;;;;;;3.22;2.63;;;19.00;99.90;;;;;;4886620;29;20051;-79
2023/09/04 08:31:21;;;;;;;3.22;1.90;;;19.00;99.90;;;;;;4896419;29;20036;-81
2023/09/04 08:33:47;;;;;;;3.78;2.40;;;19.00;99.90;;;;;;4898327;29;20052;-82
2023/09/04 08:36:13;;;;;;;2.05;1.88;;;19.20;99.90;;;;;;4881951;29;20045;-80
2023/09/04 08:38:39;;;;;;;2.00;1.90;;;19.30;99.90;;;;;;4891414;29;20478;-78
2023/09/04 08:41:08;;;;;;;2.83;1.90;;;19.30;99.90;;;;;;4889311;29;20034;-80
2023/09/04 08:43:36;;;;;;;2.20;1.70;;;19.40;99.90;;;;;;4896066;29;20029;-85
2023/09/04 08:46:06;;;;;;;1.83;1.52;;;19.30;99.90;;;;;;4894354;29;20040;-81
2023/09/04 08:48:38;;;;;;;3.47;1.70;;;19.30;99.90;;;;;;4894426;29;20208;-79
2023/09/04 08:51:06;;;;;;;3.55;1.73;;;19.40;99.90;;;;;;4894663;29;20025;-83
2023/09/04 08:53:55;;;;;;;1.60;1.50;;;19.20;99.90;;;;;;4894802;29;20542;-81
2023/09/04 08:56:22;;;;;;;1.50;1.15;;;19.30;99.90;;;;;;4897184;29;20104;-82
2023/09/04 08:58:47;;;;;;;1.23;1.13;;;19.30;99.90;;;;;;4895295;29;20028;-83
2023/09/04 09:01:15;;;;;;;1.55;1.35;;;19.30;99.90;;;;;;4899023;29;20032;-83
2023/09/04 09:03:42;;;;;;;1.60;1.27;;;19.30;99.90;;;;;;4896609;29;20037;-84
2023/09/04 09:06:08;;;;;;;4.07;1.30;;;19.30;99.90;;;;;;4895383;29;20032;-80
2023/09/04 09:08:36;;;;;;;1.30;1.08;;;19.40;99.90;;;;;;4892616;29;20052;-82
2023/09/04 09:11:03;;;;;;;1.60;1.27;;;19.40;99.90;;;;;;4898690;29;20120;-85
2023/09/04 09:13:29;;;;;;;3.42;1.30;;;19.40;99.90;;;;;;4903001;29;20035;-83
2023/09/04 09:15:55;;;;;;;1.67;1.30;;;19.40;99.90;;;;;;4883223;29;20044;-83
2023/09/04 09:18:42;;;;;;;1.65;1.10;;;19.40;99.90;;;;;;4891140;29;20064;-82
2023/09/04 09:21:25;;;;;;;1.42;1.05;;;19.40;97.70;;;;;;4894857;29;20044;-81
2023/09/04 09:24:18;;;;;;;2.17;1.58;;;19.30;98.30;;;;;;4893442;29;20449;-83
2023/09/04 09:26:48;;;;;;;2.40;1.35;;;19.30;99.10;;;;;;4894406;29;20040;-82
2023/09/04 09:29:15;;;;;;;4.45;1.33;;;19.30;97.20;;;;;;4889989;29;20053;-81
2023/09/04 09:31:45;;;;;;;2.05;1.10;;;19.30;96.20;;;;;;4895167;29;20059;-82
2023/09/04 09:34:11;;;;;;;2.17;1.05;;;19.30;96.80;;;;;;4889824;29;20033;-82
2023/09/04 09:36:38;;;;;;;4.10;1.23;;;19.40;96.50;;;;;;4887066;29;20048;-83
2023/09/04 09:39:05;;;;;;;3.13;1.48;;;19.40;98.00;;;;;;4886894;29;20032;-82
2023/09/04 09:41:31;;;;;;;2.05;1.45;;;19.50;97.50;;;;;;4894240;29;20462;-82
2023/09/04 09:44:02;;;;;;;2.17;1.40;;;19.60;99.30;;;;;;4892023;29;20037;-80
2023/09/04 09:46:29;;;;;;;3.03;1.40;;;19.60;95.50;;;;;;4893933;29;20074;-78
2023/09/04 09:48:55;;;;;;;1.48;1.30;;;19.70;95.60;;;;;;4899576;29;20040;-80
2023/09/04 09:51:21;;;;;;;4.50;1.42;;;19.80;92.90;;;;;;4890424;29;20121;-80
2023/09/04 09:53:52;;;;;;;1.75;1.15;;;19.70;93.40;;;;;;4891933;29;20036;-82
2023/09/04 09:56:18;;;;;;;1.88;1.27;;;19.70;94.40;;;;;;4891646;29;20063;-80
2023/09/04 09:58:48;;;;;;;1.55;1.05;;;19.80;92.90;;;;;;4883629;29;20041;-82
2023/09/04 10:01:16;;;;;;;2.80;1.42;;;19.90;91.20;;;;;;4891371;29;20067;-84
2023/09/04 10:03:44;;;;;;;2.10;1.20;;;20.00;91.10;;;;;;4890339;29;20063;-83
2023/09/04 10:06:15;;;;;;;1.63;1.20;;;20.00;91.50;;;;;;4883515;29;20517;-80
2023/09/04 10:08:44;;;;;;;5.80;1.83;;;20.00;92.30;;;;;;4887472;29;20037;-83
2023/09/04 10:11:12;;;;;;;1.55;1.38;;;20.10;93.70;;;;;;4891402;29;20043;-82
2023/09/04 10:14:03;;;;;;;1.73;1.27;;;20.20;93.40;;;;;;4887582;29;20089;-81
2023/09/04 10:16:36;;;;;;;2.25;1.35;;;20.20;95.20;;;;;;4895775;29;20040;-82
2023/09/04 10:19:02;;;;;;;2.20;1.20;;;20.40;94.80;;;;;;4893224;29;20055;-80
2023/09/04 10:21:40;;;;;;;2.20;1.23;;;20.40;93.30;;;;;;4892018;29;20044;-80
2023/09/04 10:24:15;;;;;;;5.00;1.58;;;20.40;89.40;;;;;;4892054;29;20680;-83
2023/09/04 10:27:00;;;;;;;2.22;1.70;;;20.40;91.50;;;;;;4897957;29;20041;-83
2023/09/04 10:29:28;;;;;;;1.33;1.10;;;20.40;91.60;;;;;;4893600;29;20041;-83
2023/09/04 10:31:55;;;;;;;1.42;1.33;;;20.50;93.90;;;;;;4893353;29;20048;-83
2023/09/04 10:34:21;;;;;;;2.63;1.20;;;20.40;91.00;;;;;;4889986;29;20047;-82
2023/09/04 10:36:48;;;;;;;3.90;1.83;;;20.50;88.30;;;;;;4891889;29;20541;-81
2023/09/04 10:39:14;;;;;;;2.85;1.40;;;20.50;87.70;;;;;;4888894;29;20036;-81
2023/09/04 10:41:40;;;;;;;3.40;1.40;;;20.50;92.10;;;;;;4884432;29;20048;-79
2023/09/04 10:44:08;;;;;;;2.35;1.90;;;20.60;92.60;;;;;;4909296;29;20021;-81
2023/09/04 10:46:34;;;;;;;2.33;1.73;;;20.50;90.70;;;;;;4894640;29;20611;-82
2023/09/04 10:49:00;;;;;;;3.65;1.63;;;20.50;92.10;;;;;;4898172;29;20041;-82
2023/09/04 10:51:37;;;;;;;4.10;1.50;;;20.60;92.20;;;;;;4895195;29;20040;-85
2023/09/04 10:54:18;;;;;;;2.92;1.70;;;20.60;91.00;;;;;;4895150;29;20029;-81
2023/09/04 10:57:01;;;;;;;2.50;1.63;;;20.70;91.50;;;;;;4898991;29;20039;-82
2023/09/04 10:59:27;;;;;;;2.30;1.55;;;20.80;90.80;;;;;;4898191;29;20037;-83
2023/09/04 11:01:54;;;;;;;2.03;1.50;;;20.80;94.00;;;;;;4888709;29;20068;-80
2023/09/04 11:04:46;;;;;;;3.10;1.65;;;20.80;92.70;;;;;;4895434;29;20100;-81
2023/09/04 11:07:20;;;;;;;3.80;1.77;;;20.90;92.50;;;;;;4895201;29;20040;-83
2023/09/04 11:10:13;;;;;;;3.30;1.53;;;20.90;93.70;;;;;;4898455;29;20032;-82
2023/09/04 11:12:39;;;;;;;1.88;1.63;;;20.90;93.30;;;;;;4895953;29;20075;-82
2023/09/04 11:15:15;;;;;;;1.83;1.42;;;20.90;92.10;;;;;;4889351;29;20031;-80
2023/09/04 11:17:44;;;;;;;;;;;20.90;92.40;;;;;;4897515;29;20065;-82
2023/09/04 11:20:12;;;;;;;2.17;1.73;;;21.00;94.20;;;;;;4898461;29;20605;-80
2023/09/04 11:22:38;;;;;;;1.95;1.50;;;21.10;94.50;;;;;;4895863;29;20111;-82
2023/09/04 11:25:04;;;;;;;2.05;1.67;;;21.20;93.00;;;;;;4899457;29;20173;-79
2023/09/04 11:27:30;;;;;;;5.45;2.22;;;21.30;93.30;;;;;;4892709;29;20506;-83
2023/09/04 11:30:01;;;;;;;1.83;1.65;;;21.40;93.40;;;;;;4899188;29;20048;-81
2023/09/04 11:32:28;;;;;;;3.75;1.95;;;21.40;91.50;;;;;;4897467;29;20040;-82
2023/09/04 11:34:55;;;;;;;2.45;1.63;;;21.50;92.20;;;;;;4891706;29;20032;-82
2023/09/04 11:37:20;;;;;;;3.13;1.67;;;21.40;91.30;;;;;;4895211;29;20032;-84
2023/09/04 11:39:57;;;;;;;3.85;1.98;;;21.50;92.60;;;;;;4895497;29;20544;-83
2023/09/04 11:42:25;;;;;;;3.58;1.65;;;21.50;92.90;;;;;;4890068;29;20130;-82
2023/09/04 11:44:51;;;;;;;2.65;1.50;;;21.70;92.00;;;;;;4897001;29;20132;-82
2023/09/04 11:47:18;;;;;;;5.70;1.58;;;21.70;94.10;;;;;;4899862;29;20115;-82
2023/09/04 11:49:45;;;;;;;3.65;1.50;;;21.80;92.50;;;;;;4897216;29;20071;-83
2023/09/04 11:52:14;;;;;;;4.80;1.70;;;21.90;91.60;;;;;;4897871;29;20606;-84
2023/09/04 11:54:41;;;;;;;3.03;1.90;;;22.10;90.50;;;;;;4888430;29;20639;-83
2023/09/04 11:57:09;;;;;;;9.55;3.80;;;22.20;90.70;;;;;;4894094;29;20043;-84
2023/09/04 11:59:37;;;;;;;5.15;1.65;;;22.20;90.30;;;;;;4896947;29;20041;-87
2023/09/04 12:02:07;;;;;;;2.08;1.50;;;22.20;87.70;;;;;;4891039;29;20418;-81
2023/09/04 12:04:34;;;;;;;2.58;1.35;;;22.10;85.40;;;;;;4897071;29;20025;-83
2023/09/04 12:07:04;;;;;;;4.38;1.60;;;22.10;86.10;;;;;;4898776;29;20119;-83
2023/09/04 12:09:31;;;;;;;2.15;1.63;;;22.10;86.10;;;;;;4896453;29;20040;-82
2023/09/04 12:11:57;;;;;;;1.70;1.30;;;22.20;87.80;;;;;;4895978;29;20053;-84
2023/09/04 12:14:23;;;;;;;3.78;1.50;;;22.20;82.70;;;;;;4897422;29;20048;-83
2023/09/04 12:16:49;;;;;;;2.45;1.33;;;22.30;84.10;;;;;;4897684;29;20083;-81
2023/09/04 12:19:16;;;;;;;2.90;1.65;;;22.30;82.50;;;;;;4897569;29;20286;-85
2023/09/04 12:21:43;;;;;;;2.60;1.67;;;22.30;84.20;;;;;;4895674;29;20024;-83
2023/09/04 12:24:13;;;;;;;2.00;1.50;;;22.40;84.70;;;;;;4896273;29;20021;-83
2023/09/04 12:26:39;;;;;;;1.60;1.50;;;22.50;81.50;;;;;;4890047;29;20041;-83
2023/09/04 12:29:07;;;;;;;2.25;1.40;;;22.40;82.60;;;;;;4891026;29;20066;-81
2023/09/04 12:31:32;;;;;;;3.10;1.58;;;22.40;83.70;;;;;;4894713;29;20157;-83
2023/09/04 12:33:58;;;;;;;2.85;1.50;;;22.50;83.80;;;;;;4894820;29;20032;-82
2023/09/04 12:36:24;;;;;;;3.42;1.33;;;22.60;84.20;;;;;;4897744;29;20048;-82
2023/09/04 12:38:50;;;;;;;3.30;1.30;;;22.70;88.40;;;;;;4898950;29;20449;-82
2023/09/04 12:41:16;;;;;;;2.35;1.25;;;22.90;91.10;;;;;;4913079;29;20056;-84
2023/09/04 12:43:41;;;;;;;2.42;1.20;;;23.00;81.80;;;;;;4893963;29;20053;-81
2023/09/04 12:46:08;;;;;;;4.38;1.33;;;23.00;74.90;;;;;;4913877;29;20043;-82
2023/09/04 12:48:34;;;;;;;2.92;1.33;;;23.00;77.50;;;;;;4909378;29;20121;-83
2023/09/04 12:51:00;;;;;;;2.30;1.08;;;23.10;73.40;;;;;;4890902;29;20032;-82